KTPA/TPA METAR and TAF weather

Enter ICAO airport designator
Station Type Date Time Source
KTPA METAR 2021/08/05 04:53 UTC NOAA

KTPA 050453Z 20007KT 10SM SCT018 BKN080 28/24 A3004 RMK AO2 SLP171 T02780239 403060244 $


Station Type Date Time Source
KTPA Decoded METAR 2021/08/05 04:53 UTC NOAA

TAMPA INTERNATIONAL AIRPORT , FL, United States (KTPA) 27-58N 082-32W 11M
Aug 05, 2021 - 12:53 AM EDT / 2021.08.05 0453 UTC
Wind: from the SSW (200 degrees) at 8 MPH (7 KT):0
Visibility: 10 mile(s):0
Sky conditions: mostly cloudy
Temperature: 82.0 F (27.8 C)
Dew Point: 75.0 F (23.9 C)
Relative Humidity: 79%
Pressure (altimeter): 30.04 in. Hg (1017 hPa)
ob: KTPA 050453Z 20007KT 10SM SCT018 BKN080 28/24 A3004 RMK AO2 SLP171 T02780239 403060244
cycle: 5

Station Type Date Time Source
KTPA TAF 2021/08/05 03:04 UTC NOAA

TAF
AMD KTPA 050301Z 0503/0606 21008KT P6SM VCSH SCT020 SCT040 BKN250
FM050600 21008KT P6SM VCTS SCT020CB BKN035
FM050900 20008KT 6SM SHRA VCTS FEW020CB SCT045
FM052100 23009KT P6SM VCTS SCT025CB BKN035
FM060000 23006KT P6SM SCT025 BKN090

Example: see airport list